createdAt,value
2019-03-18T00:01:39.940Z,8.43
2019-03-18T00:02:45.351Z,8.42
2019-03-18T00:04:53.267Z,8.39
2019-03-18T00:05:57.651Z,8.38
2019-03-18T00:08:05.679Z,8.35
2019-03-18T00:11:18.781Z,8.36
2019-03-18T00:14:30.701Z,8.33
2019-03-18T00:15:35.103Z,8.32
2019-03-18T00:18:48.600Z,8.26
2019-03-18T00:19:53.873Z,8.24
2019-03-18T00:22:02.893Z,8.25
2019-03-18T00:24:10.889Z,8.29
2019-03-18T00:28:27.519Z,8.27
2019-03-18T00:31:39.096Z,8.29
2019-03-18T00:33:47.185Z,8.30
2019-03-18T00:34:51.621Z,8.30
2019-03-18T00:38:04.252Z,8.26
2019-03-18T00:39:08.650Z,8.25
2019-03-18T00:42:23.008Z,8.26
2019-03-18T00:44:31.918Z,8.23
2019-03-18T00:45:36.318Z,8.22
2019-03-18T00:48:48.533Z,8.19
2019-03-18T00:58:23.509Z,8.10
2019-03-18T00:59:27.869Z,8.13
2019-03-18T01:03:44.087Z,8.08
2019-03-18T01:04:48.677Z,8.08
2019-03-18T01:05:53.041Z,8.09
2019-03-18T01:10:12.521Z,8.06
2019-03-18T01:11:16.906Z,8.06
2019-03-18T01:16:36.439Z,8.00
2019-03-18T01:22:59.142Z,7.94
2019-03-18T01:26:12.432Z,7.95
2019-03-18T01:27:16.834Z,7.93
2019-03-18T01:28:21.226Z,7.93
2019-03-18T01:32:39.289Z,7.92
2019-03-18T01:33:43.687Z,7.92
2019-03-18T01:35:51.668Z,7.91
2019-03-18T01:36:56.318Z,7.90
2019-03-18T01:38:00.700Z,7.89
2019-03-18T01:39:05.938Z,7.90
2019-03-18T01:41:16.705Z,7.92
2019-03-18T01:42:21.087Z,7.93
2019-03-18T01:44:29.814Z,7.90
2019-03-18T01:45:40.624Z,7.85
2019-03-18T01:46:41.485Z,7.77
2019-03-18T01:47:46.141Z,7.80
2019-03-18T01:52:01.294Z,7.85
2019-03-18T01:55:12.868Z,7.88
2019-03-18T01:57:20.903Z,7.90
2019-03-18T02:00:32.501Z,7.84
2019-03-18T02:03:44.193Z,7.89
2019-03-18T02:04:48.564Z,7.87
2019-03-18T02:08:00.263Z,7.83
2019-03-18T02:09:06.247Z,7.82
2019-03-18T02:10:14.630Z,7.80
2019-03-18T02:11:19.044Z,7.75
2019-03-18T02:12:23.425Z,7.73
2019-03-18T02:14:31.364Z,7.71
2019-03-18T02:16:43.197Z,7.67
2019-03-18T02:17:47.734Z,7.64
2019-03-18T02:18:52.259Z,7.63
2019-03-18T02:21:00.319Z,7.60
2019-03-18T02:22:04.776Z,7.57
2019-03-18T02:23:09.198Z,7.57
2019-03-18T02:25:17.291Z,7.57
2019-03-18T02:26:21.688Z,7.57
2019-03-18T02:30:36.873Z,7.49
2019-03-18T02:36:59.355Z,7.49
2019-03-18T02:40:11.362Z,7.51
2019-03-18T02:43:22.927Z,7.50
2019-03-18T02:44:27.549Z,7.50
2019-03-18T02:47:39.140Z,7.57
2019-03-18T02:48:43.865Z,7.55
2019-03-18T02:49:48.241Z,7.55
2019-03-18T02:50:53.325Z,7.53
2019-03-18T02:51:57.650Z,7.53
2019-03-18T02:56:13.298Z,7.45
2019-03-18T02:58:21.288Z,7.45
2019-03-18T02:59:26.389Z,7.45
2019-03-18T03:02:38.016Z,7.47
2019-03-18T03:03:42.389Z,7.47
2019-03-18T03:04:46.834Z,7.48
2019-03-18T03:10:10.017Z,7.45
2019-03-18T03:11:14.725Z,7.47
2019-03-18T03:13:22.936Z,7.43
2019-03-18T03:14:27.349Z,7.44
2019-03-18T03:15:31.733Z,7.43
2019-03-18T03:17:39.742Z,7.40
2019-03-18T03:18:44.386Z,7.40
2019-03-18T03:19:49.102Z,7.40
2019-03-18T03:21:57.674Z,7.38
2019-03-18T03:24:05.694Z,7.39
2019-03-18T03:25:11.409Z,7.40
2019-03-18T03:27:20.718Z,7.42
2019-03-18T03:28:25.316Z,7.44
2019-03-18T03:30:33.273Z,7.37
2019-03-18T03:31:37.936Z,7.33
2019-03-18T03:34:49.807Z,7.33
2019-03-18T03:36:58.095Z,7.31
2019-03-18T03:41:17.886Z,7.35
2019-03-18T03:44:29.156Z,7.28
2019-03-18T03:49:49.267Z,7.35
2019-03-18T03:50:53.984Z,7.35
2019-03-18T03:51:58.350Z,7.36
2019-03-18T03:54:06.394Z,7.37
2019-03-18T03:57:19.109Z,7.33
2019-03-18T03:58:23.612Z,7.34
2019-03-18T03:59:29.262Z,7.35
2019-03-18T04:00:33.756Z,7.34
2019-03-18T04:01:38.585Z,7.34
2019-03-18T04:02:44.108Z,7.30
2019-03-18T04:05:56.338Z,7.25
2019-03-18T04:08:04.332Z,7.28
2019-03-18T04:10:14.006Z,7.24
2019-03-18T04:12:23.193Z,7.17
2019-03-18T04:13:27.822Z,7.26
2019-03-18T04:15:36.126Z,7.23
2019-03-18T04:16:44.022Z,7.24
2019-03-18T04:19:54.093Z,7.21
2019-03-18T04:20:59.601Z,7.22
2019-03-18T04:25:15.014Z,7.21
2019-03-18T04:26:19.584Z,7.20
2019-03-18T04:28:27.582Z,7.07
2019-03-18T04:31:39.195Z,7.13
2019-03-18T04:32:43.919Z,7.14
2019-03-18T04:33:48.491Z,7.16
2019-03-18T04:34:53.661Z,7.17
2019-03-18T04:39:10.165Z,7.13
2019-03-18T04:41:18.165Z,7.10
2019-03-18T04:42:22.545Z,7.06
2019-03-18T04:44:30.524Z,7.03
2019-03-18T04:48:48.712Z,7.00
2019-03-18T04:52:02.901Z,7.13
2019-03-18T04:54:10.975Z,7.16
2019-03-18T04:56:18.951Z,7.17
2019-03-18T04:58:26.973Z,7.15
2019-03-18T05:00:34.910Z,7.13
2019-03-18T05:01:39.320Z,7.13
2019-03-18T05:02:43.833Z,7.13
2019-03-18T05:03:48.163Z,7.09
2019-03-18T05:04:52.613Z,7.11
2019-03-18T05:05:58.558Z,7.11
2019-03-18T05:07:02.933Z,7.09
2019-03-18T05:08:07.368Z,7.04
2019-03-18T05:09:13.022Z,7.01
2019-03-18T05:10:17.641Z,7.02
2019-03-18T05:11:22.037Z,7.01
2019-03-18T05:12:26.398Z,7.05
2019-03-18T05:13:30.897Z,7.09
2019-03-18T05:15:38.951Z,7.10
2019-03-18T05:18:50.552Z,7.15
2019-03-18T05:23:06.445Z,7.08
2019-03-18T05:24:10.856Z,7.08
2019-03-18T05:25:15.267Z,7.06
2019-03-18T05:26:22.260Z,7.08
2019-03-18T05:27:26.087Z,7.03
2019-03-18T05:28:30.545Z,7.03
2019-03-18T05:30:38.640Z,7.09
2019-03-18T05:31:43.053Z,7.11
2019-03-18T05:32:47.465Z,7.09
2019-03-18T05:42:21.481Z,7.09
2019-03-18T05:44:30.145Z,7.10
2019-03-18T05:45:35.979Z,7.12
2019-03-18T05:46:40.386Z,7.09
2019-03-18T05:47:44.797Z,7.05
2019-03-18T05:49:53.909Z,7.06
2019-03-18T05:52:02.555Z,7.08
2019-03-18T05:53:07.128Z,7.12
2019-03-18T05:54:11.504Z,7.12
2019-03-18T05:55:15.886Z,7.09
2019-03-18T05:56:20.381Z,7.08
2019-03-18T05:58:28.369Z,7.06
2019-03-18T05:59:33.487Z,7.08
2019-03-18T06:03:49.623Z,7.10
2019-03-18T06:07:01.151Z,7.13
2019-03-18T06:11:16.779Z,7.35
2019-03-18T06:14:28.913Z,7.33
2019-03-18T06:15:33.602Z,7.34
2019-03-18T06:18:45.142Z,7.35
2019-03-18T06:19:49.516Z,7.36
2019-03-18T06:20:54.107Z,7.37
2019-03-18T06:23:02.064Z,7.33
2019-03-18T06:24:06.687Z,7.34
2019-03-18T06:29:29.606Z,7.28
2019-03-18T06:30:34.763Z,7.32
2019-03-18T06:32:43.656Z,7.34
2019-03-18T06:34:51.637Z,7.45
2019-03-18T06:35:56.046Z,7.52
2019-03-18T06:37:00.419Z,7.68
2019-03-18T06:38:04.872Z,7.90
2019-03-18T06:40:14.470Z,8.06
2019-03-18T06:42:22.608Z,8.04
2019-03-18T06:43:27.744Z,8.12
2019-03-18T06:46:39.354Z,8.30
2019-03-18T06:48:47.641Z,8.27
2019-03-18T06:49:53.089Z,8.30
2019-03-18T06:52:01.303Z,8.38
2019-03-18T06:53:05.671Z,8.37
2019-03-18T06:59:28.119Z,8.82
2019-03-18T07:02:40.773Z,9.00
2019-03-18T07:03:45.181Z,9.08
2019-03-18T07:11:16.427Z,8.67
2019-03-18T07:12:20.852Z,8.64
2019-03-18T07:13:26.333Z,8.62
2019-03-18T07:15:34.389Z,8.54
2019-03-18T07:16:38.811Z,8.55
2019-03-18T07:23:01.453Z,8.73
2019-03-18T07:24:05.819Z,8.75
2019-03-18T07:25:10.222Z,8.81
2019-03-18T07:28:22.003Z,8.99
2019-03-18T07:31:34.131Z,9.79
2019-03-18T07:32:38.595Z,10.02
2019-03-18T07:33:44.023Z,10.16
2019-03-18T07:35:52.023Z,10.63
2019-03-18T07:42:20.930Z,10.26
2019-03-18T07:48:44.120Z,10.19
2019-03-18T07:50:52.122Z,10.25
2019-03-18T07:51:56.581Z,10.34
2019-03-18T07:54:05.761Z,10.45
2019-03-18T07:55:10.247Z,10.51
2019-03-18T07:59:26.851Z,10.62
2019-03-18T08:00:32.533Z,10.61
2019-03-18T08:02:40.526Z,10.76
2019-03-18T08:04:48.511Z,10.82
2019-03-18T08:06:56.526Z,10.91
2019-03-18T08:08:01.410Z,10.94
2019-03-18T08:09:07.609Z,10.98
2019-03-18T08:11:16.676Z,11.05
2019-03-18T08:14:28.560Z,11.12
2019-03-18T08:15:33.041Z,11.11
2019-03-18T08:18:44.615Z,11.42
2019-03-18T08:20:53.132Z,11.29
2019-03-18T08:21:57.515Z,11.22
2019-03-18T08:23:01.922Z,11.41
2019-03-18T08:24:08.332Z,11.49
2019-03-18T08:25:13.001Z,11.53
2019-03-18T08:26:17.639Z,11.61
2019-03-18T08:27:22.050Z,11.83
2019-03-18T08:28:26.773Z,12.14
2019-03-18T08:30:35.663Z,12.85
2019-03-18T08:35:54.546Z,15.11
2019-03-18T08:36:58.941Z,15.89
2019-03-18T08:39:07.325Z,16.74
2019-03-18T08:41:15.614Z,16.93
2019-03-18T08:42:20.022Z,16.88
2019-03-18T08:43:24.488Z,17.36
2019-03-18T08:45:32.616Z,18.35
2019-03-18T08:48:55.370Z,17.64
2019-03-18T08:49:50.599Z,16.81
2019-03-18T08:50:55.049Z,17.39
2019-03-18T08:53:03.180Z,17.44
2019-03-18T08:56:15.079Z,16.59
2019-03-18T08:57:19.472Z,16.33
2019-03-18T08:59:27.458Z,16.73
2019-03-18T09:00:32.920Z,16.59
2019-03-18T09:01:37.326Z,15.94
2019-03-18T09:02:41.834Z,15.28
2019-03-18T09:03:46.342Z,14.96
2019-03-18T09:04:50.775Z,14.80
2019-03-18T09:06:58.810Z,15.04
2019-03-18T09:09:07.406Z,15.41
2019-03-18T09:10:13.840Z,15.53
2019-03-18T09:11:19.274Z,15.52
2019-03-18T09:16:38.063Z,15.94
2019-03-18T09:19:49.871Z,17.29
2019-03-18T09:21:57.872Z,16.63
2019-03-18T09:23:02.340Z,16.43
2019-03-18T09:24:07.363Z,18.86
2019-03-18T09:26:18.808Z,20.55
2019-03-18T09:27:23.248Z,21.16
2019-03-18T09:28:27.765Z,21.35
2019-03-18T09:29:32.173Z,21.66
2019-03-18T09:31:41.226Z,22.24
2019-03-18T09:32:46.848Z,22.48
2019-03-18T09:37:02.112Z,22.94
2019-03-18T09:38:06.941Z,23.26
2019-03-18T09:42:23.956Z,23.96
2019-03-18T09:46:41.294Z,21.91
2019-03-18T09:47:45.804Z,20.77
2019-03-18T09:48:51.381Z,20.07
2019-03-18T09:49:55.753Z,19.23
2019-03-18T09:53:07.449Z,17.57
2019-03-18T09:55:15.440Z,16.75
2019-03-18T09:59:30.632Z,15.37
2019-03-18T10:01:39.726Z,15.16
2019-03-18T10:02:44.161Z,15.23
2019-03-18T10:11:16.728Z,15.79
2019-03-18T10:12:21.392Z,15.73
2019-03-18T10:14:29.434Z,15.58
2019-03-18T10:15:33.918Z,15.68
2019-03-18T10:16:38.301Z,15.67
2019-03-18T10:18:46.304Z,15.75
2019-03-18T10:20:54.378Z,16.63
2019-03-18T10:27:17.004Z,17.86
2019-03-18T10:29:25.088Z,18.43
2019-03-18T10:31:33.122Z,19.50
2019-03-18T10:34:44.771Z,21.30
2019-03-18T10:35:49.161Z,21.61
2019-03-18T10:41:13.796Z,21.22
2019-03-18T10:43:21.883Z,20.92
2019-03-18T10:44:26.256Z,20.73
2019-03-18T10:45:30.916Z,20.57
2019-03-18T10:46:37.273Z,20.44
2019-03-18T10:48:45.364Z,19.77
2019-03-18T10:49:50.194Z,19.82
2019-03-18T10:50:55.616Z,19.79
2019-03-18T10:54:07.472Z,19.50
2019-03-18T10:55:12.213Z,19.49
2019-03-18T10:56:16.564Z,19.35
2019-03-18T10:57:20.939Z,19.46
2019-03-18T10:59:29.720Z,19.34
2019-03-18T11:02:41.359Z,19.39
2019-03-18T11:04:49.961Z,19.39
2019-03-18T11:06:57.945Z,19.54
2019-03-18T11:08:02.337Z,19.55
2019-03-18T11:10:12.951Z,19.49
2019-03-18T11:11:17.591Z,19.48
2019-03-18T11:13:25.577Z,19.54
2019-03-18T11:14:29.940Z,19.57
2019-03-18T11:15:34.394Z,19.55
2019-03-18T11:21:56.945Z,19.90
2019-03-18T11:24:04.941Z,19.87
2019-03-18T11:25:12.429Z,19.87
2019-03-18T11:28:24.122Z,20.07
2019-03-18T11:29:28.523Z,20.04
2019-03-18T11:33:43.724Z,19.76
2019-03-18T11:34:48.120Z,19.90
2019-03-18T11:40:14.505Z,21.04
2019-03-18T11:42:22.575Z,21.36
2019-03-18T11:45:35.065Z,21.64
2019-03-18T11:47:43.947Z,21.88
2019-03-18T11:48:48.275Z,22.01
2019-03-18T11:50:56.313Z,21.95
2019-03-18T11:54:08.009Z,21.82
2019-03-18T11:56:31.985Z,21.72
2019-03-18T11:57:36.394Z,21.63
2019-03-18T11:59:46.735Z,21.49
2019-03-18T12:00:50.930Z,21.54
2019-03-18T12:01:55.274Z,21.42
2019-03-18T12:04:03.559Z,21.44
2019-03-18T12:06:15.661Z,21.47
2019-03-18T12:13:41.818Z,21.05
2019-03-18T12:15:49.917Z,20.99
2019-03-18T12:17:57.990Z,20.57
2019-03-18T12:19:02.374Z,20.43
2019-03-18T12:21:15.910Z,20.08
2019-03-18T12:27:38.139Z,20.08
2019-03-18T12:28:42.611Z,20.35
2019-03-18T12:31:54.519Z,20.81
2019-03-18T12:32:59.034Z,21.09
2019-03-18T12:38:19.507Z,21.72
2019-03-18T12:41:31.138Z,21.97
2019-03-18T12:43:38.107Z,21.90
2019-03-18T12:46:50.730Z,21.84
2019-03-18T12:47:55.118Z,21.84
2019-03-18T12:48:59.541Z,21.74
2019-03-18T12:53:18.510Z,21.33
2019-03-18T12:54:22.927Z,21.32
2019-03-18T13:03:57.229Z,21.83
2019-03-18T13:05:01.658Z,22.03
2019-03-18T13:06:06.164Z,22.20
2019-03-18T13:08:14.199Z,22.21
2019-03-18T13:09:19.495Z,22.17
2019-03-18T13:11:28.512Z,22.51
2019-03-18T13:12:32.987Z,22.63
2019-03-18T13:14:40.984Z,22.41
2019-03-18T13:15:45.385Z,22.30
2019-03-18T13:23:11.455Z,20.44
2019-03-18T13:24:15.927Z,20.16
2019-03-18T13:25:20.338Z,19.95
2019-03-18T13:28:31.989Z,19.29
2019-03-18T13:30:41.027Z,19.23
2019-03-18T13:32:49.063Z,19.24
2019-03-18T13:33:53.448Z,19.15
2019-03-18T13:36:01.464Z,19.14
2019-03-18T13:38:09.599Z,19.07
2019-03-18T13:39:14.234Z,19.18
2019-03-18T13:40:19.496Z,19.07
2019-03-18T13:41:24.203Z,18.79
2019-03-18T13:42:28.597Z,18.56
2019-03-18T13:44:36.587Z,18.39
2019-03-18T13:45:40.974Z,18.30
2019-03-18T13:46:45.687Z,18.17
2019-03-18T13:48:53.709Z,18.18
2019-03-18T13:49:58.193Z,18.20
2019-03-18T13:58:27.932Z,17.34
2019-03-18T14:00:35.953Z,17.35
2019-03-18T14:01:40.467Z,17.36
2019-03-18T14:06:59.933Z,17.66
2019-03-18T14:09:08.147Z,17.61
2019-03-18T14:11:17.449Z,17.53
2019-03-18T14:12:22.085Z,17.42
2019-03-18T14:14:30.632Z,17.38
2019-03-18T14:17:42.344Z,17.76
2019-03-18T14:19:50.298Z,17.63
2019-03-18T14:21:58.375Z,17.58
2019-03-18T14:24:06.735Z,17.34
2019-03-18T14:26:16.035Z,17.07
2019-03-18T14:28:24.038Z,16.89
2019-03-18T14:31:36.874Z,16.65
2019-03-18T14:32:41.274Z,16.74
2019-03-18T14:33:45.670Z,16.82
2019-03-18T14:34:50.056Z,16.96
2019-03-18T14:35:54.598Z,17.09
2019-03-18T14:36:59.056Z,17.20
2019-03-18T14:38:03.795Z,17.21
2019-03-18T14:39:08.183Z,17.17
2019-03-18T14:40:17.248Z,17.13
2019-03-18T14:43:29.127Z,17.04
2019-03-18T14:44:33.557Z,16.97
2019-03-18T14:49:53.418Z,16.66
2019-03-18T14:52:01.761Z,16.59
2019-03-18T14:56:19.647Z,16.73
2019-03-18T14:57:24.018Z,16.63
2019-03-18T15:00:35.684Z,16.53
2019-03-18T15:02:43.778Z,16.56
2019-03-18T15:03:49.327Z,16.56
2019-03-18T15:09:08.530Z,16.43
2019-03-18T15:11:24.508Z,16.36
2019-03-18T15:19:55.180Z,16.62
2019-03-18T15:20:59.698Z,16.52
2019-03-18T15:25:20.760Z,16.32
2019-03-18T15:28:32.646Z,16.08
2019-03-18T15:31:44.247Z,15.85
2019-03-18T15:33:52.500Z,15.76
2019-03-18T15:34:56.959Z,15.79
2019-03-18T15:36:02.385Z,15.80
2019-03-18T15:40:26.472Z,16.06
2019-03-18T15:42:34.487Z,15.73
2019-03-18T15:45:46.090Z,15.29
2019-03-18T15:46:50.472Z,15.11
2019-03-18T15:47:54.929Z,15.01
2019-03-18T15:48:59.352Z,14.94
2019-03-18T15:50:06.503Z,14.82
2019-03-18T15:51:10.885Z,14.55
2019-03-18T15:52:15.283Z,14.46
2019-03-18T15:53:19.683Z,14.40
2019-03-18T15:54:24.174Z,14.41
2019-03-18T15:59:43.086Z,14.70
2019-03-18T16:00:47.856Z,14.44
2019-03-18T16:05:03.742Z,13.95
2019-03-18T16:06:08.173Z,13.88
2019-03-18T16:09:19.785Z,13.82
2019-03-18T16:11:27.842Z,13.54
2019-03-18T16:12:32.187Z,13.55
2019-03-18T16:13:36.810Z,13.58
2019-03-18T16:14:41.187Z,13.54
2019-03-18T16:17:52.824Z,13.26
2019-03-18T16:20:00.853Z,13.29
2019-03-18T16:23:13.601Z,13.24
2019-03-18T16:25:21.605Z,13.19
2019-03-18T16:27:30.664Z,13.20
2019-03-18T16:30:42.322Z,13.14
2019-03-18T16:33:53.935Z,13.02
2019-03-18T16:36:01.991Z,12.90
2019-03-18T16:37:06.336Z,12.91
2019-03-18T16:38:10.834Z,12.89
2019-03-18T16:39:16.509Z,12.80
2019-03-18T16:40:21.772Z,12.73
2019-03-18T16:41:26.177Z,12.77
2019-03-18T16:42:30.553Z,12.79
2019-03-18T16:43:35.028Z,12.72
2019-03-18T16:44:39.421Z,12.71
2019-03-18T16:46:48.362Z,12.67
2019-03-18T16:47:53.007Z,12.67
2019-03-18T16:53:13.250Z,12.64
2019-03-18T16:54:17.790Z,12.57
2019-03-18T16:58:33.054Z,12.42
2019-03-18T17:02:48.249Z,12.36
2019-03-18T17:04:56.263Z,12.21
2019-03-18T17:06:00.629Z,12.32
2019-03-18T17:07:05.081Z,12.40
2019-03-18T17:08:09.476Z,12.32
2019-03-18T17:09:13.892Z,12.35
2019-03-18T17:10:19.105Z,12.39
2019-03-18T17:12:27.277Z,12.34
2019-03-18T17:14:35.319Z,12.34
2019-03-18T17:16:43.324Z,12.32
2019-03-18T17:17:49.368Z,12.32
2019-03-18T17:19:57.487Z,12.28
2019-03-18T17:22:05.512Z,12.27
2019-03-18T17:25:23.515Z,12.19
2019-03-18T17:28:35.094Z,12.13
2019-03-18T17:29:39.521Z,12.11
2019-03-18T17:32:51.219Z,12.04
2019-03-18T17:34:59.407Z,11.99
2019-03-18T17:38:11.959Z,11.92
2019-03-18T17:40:20.747Z,11.86
2019-03-18T17:42:28.981Z,11.83
2019-03-18T17:43:34.057Z,11.80
2019-03-18T17:44:38.487Z,11.79
2019-03-18T17:48:55.184Z,11.75
2019-03-18T17:54:14.466Z,11.63
2019-03-18T17:58:30.902Z,11.53
2019-03-18T18:00:38.909Z,11.50
2019-03-18T18:01:43.301Z,11.49
2019-03-18T18:02:47.718Z,11.46
2019-03-18T18:06:00.591Z,11.38
2019-03-18T18:09:12.630Z,11.29
2019-03-18T18:10:17.045Z,11.29
2019-03-18T18:14:32.630Z,11.20
2019-03-18T18:22:00.766Z,11.05
2019-03-18T18:28:28.349Z,10.88
2019-03-18T18:29:31.920Z,10.87
2019-03-18T18:32:44.715Z,10.79
2019-03-18T18:33:49.141Z,10.78
2019-03-18T18:35:57.131Z,10.74
2019-03-18T18:37:01.548Z,10.71
2019-03-18T18:38:06.129Z,10.68
2019-03-18T18:40:16.452Z,10.63
2019-03-18T18:41:20.820Z,10.61
2019-03-18T18:42:25.225Z,10.59
2019-03-18T18:44:33.241Z,10.52
2019-03-18T18:47:44.907Z,10.52
2019-03-18T18:52:01.113Z,10.30
2019-03-18T18:53:05.553Z,10.33
2019-03-18T18:56:18.048Z,10.36
2019-03-18T18:57:22.457Z,10.36
2019-03-18T18:59:31.288Z,10.30
2019-03-18T19:00:36.629Z,10.29
2019-03-18T19:03:48.625Z,10.26
2019-03-18T19:04:53.026Z,10.24
2019-03-18T19:07:01.734Z,10.23
2019-03-18T19:09:09.700Z,10.20
2019-03-18T19:11:23.783Z,10.11
2019-03-18T19:12:28.184Z,10.10
2019-03-18T19:14:37.753Z,10.11
2019-03-18T19:16:47.768Z,10.09
2019-03-18T19:17:52.279Z,10.06
2019-03-18T19:18:56.668Z,10.02
2019-03-18T19:20:01.290Z,10.04
2019-03-18T19:21:05.729Z,9.97
2019-03-18T19:22:10.436Z,10.00
2019-03-18T19:23:14.929Z,9.92
2019-03-18T19:24:19.337Z,9.92
2019-03-18T19:25:23.770Z,9.93
2019-03-18T19:27:31.863Z,9.92
2019-03-18T19:28:36.223Z,9.90
2019-03-18T19:31:47.904Z,9.87
2019-03-18T19:36:03.352Z,9.82
2019-03-18T19:39:15.053Z,9.76
2019-03-18T19:40:20.464Z,9.75
2019-03-18T19:41:24.893Z,9.70
2019-03-18T19:42:29.296Z,9.70
2019-03-18T19:43:33.732Z,9.67
2019-03-18T19:48:54.601Z,9.59
2019-03-18T19:49:58.946Z,9.58
2019-03-18T19:51:03.350Z,9.59
2019-03-18T19:53:11.329Z,9.58
2019-03-18T19:56:22.943Z,9.53
2019-03-18T19:58:31.066Z,9.49
2019-03-18T19:59:35.558Z,9.48
2019-03-18T20:00:40.271Z,9.49
2019-03-18T20:01:44.984Z,9.47
2019-03-18T20:08:07.454Z,9.37
2019-03-18T20:09:11.888Z,9.36
2019-03-18T20:11:21.408Z,9.32
2019-03-18T20:13:29.388Z,9.28
2019-03-18T20:14:33.797Z,9.28
2019-03-18T20:17:46.213Z,9.27
2019-03-18T20:18:50.589Z,9.27
2019-03-18T20:19:55.231Z,9.26
2019-03-18T20:21:00.635Z,9.25
2019-03-18T20:22:05.062Z,9.24
2019-03-18T20:23:09.573Z,9.26
2019-03-18T20:25:18.544Z,9.22
2019-03-18T20:28:30.368Z,9.19
2019-03-18T20:29:34.742Z,9.18
2019-03-18T20:31:42.737Z,9.13
2019-03-18T20:32:47.120Z,9.11
2019-03-18T20:35:58.686Z,9.09
2019-03-18T20:37:03.086Z,9.09
2019-03-18T20:38:07.828Z,9.08
2019-03-18T20:39:12.188Z,9.05
2019-03-18T20:42:24.873Z,8.97
2019-03-18T20:44:32.836Z,8.98
2019-03-18T20:48:48.064Z,8.99
2019-03-18T20:50:56.773Z,8.93
2019-03-18T20:53:05.064Z,8.86
2019-03-18T20:57:22.075Z,8.88
2019-03-18T21:00:33.617Z,8.83
2019-03-18T21:01:38.265Z,8.82
2019-03-18T21:02:43.666Z,8.81
2019-03-18T21:03:48.269Z,8.81
2019-03-18T21:05:56.235Z,8.78
2019-03-18T21:07:00.651Z,8.78
2019-03-18T21:10:20.508Z,8.69
2019-03-18T21:12:28.573Z,8.68
2019-03-18T21:13:33.257Z,8.66
2019-03-18T21:16:45.859Z,8.62
2019-03-18T21:17:51.409Z,8.61
2019-03-18T21:19:59.509Z,8.58
2019-03-18T21:23:11.144Z,8.58
2019-03-18T21:25:19.156Z,8.59
2019-03-18T21:31:41.806Z,8.54
2019-03-18T21:33:49.784Z,8.52
2019-03-18T21:34:54.179Z,8.52
2019-03-18T21:43:26.388Z,8.42
2019-03-18T21:47:41.564Z,8.38
2019-03-18T21:51:56.707Z,8.37
2019-03-18T21:55:08.546Z,8.37
2019-03-18T21:57:17.133Z,8.35
2019-03-18T21:58:21.660Z,8.31
2019-03-18T21:59:26.025Z,8.30
2019-03-18T22:04:44.836Z,8.26
2019-03-18T22:06:52.833Z,8.27
2019-03-18T22:07:57.199Z,8.25
2019-03-18T22:09:01.607Z,8.23
2019-03-18T22:14:26.277Z,8.23
2019-03-18T22:17:37.882Z,8.20
2019-03-18T22:18:42.479Z,8.18
2019-03-18T22:20:50.504Z,8.17
2019-03-18T22:22:58.578Z,8.16
2019-03-18T22:24:02.990Z,8.13
2019-03-18T22:27:18.393Z,8.11
2019-03-18T22:30:29.983Z,8.07
2019-03-18T22:33:41.744Z,8.05
2019-03-18T22:34:46.156Z,8.05
2019-03-18T22:35:50.679Z,8.06
2019-03-18T22:37:58.663Z,8.01
2019-03-18T22:39:04.596Z,8.02
2019-03-18T22:41:15.057Z,8.00
2019-03-18T22:42:19.439Z,8.00
2019-03-18T22:43:23.887Z,7.99
2019-03-18T22:44:28.296Z,7.98
2019-03-18T22:46:37.319Z,7.95
2019-03-18T22:47:41.728Z,7.96
2019-03-18T22:48:46.563Z,7.94
2019-03-18T22:49:50.960Z,7.94
2019-03-18T22:50:55.370Z,7.93
2019-03-18T22:51:59.784Z,7.90
2019-03-18T22:53:04.201Z,7.87
2019-03-18T22:54:08.792Z,7.85
2019-03-18T22:57:21.220Z,7.86
2019-03-18T23:03:45.120Z,7.84
2019-03-18T23:05:53.112Z,7.78
2019-03-18T23:06:57.518Z,7.77
2019-03-18T23:08:02.296Z,7.78
2019-03-18T23:12:18.540Z,7.76
2019-03-18T23:17:38.983Z,7.74
2019-03-18T23:19:46.955Z,7.74
2019-03-18T23:20:52.109Z,7.73
2019-03-18T23:21:56.494Z,7.72
2019-03-18T23:23:01.216Z,7.73
2019-03-18T23:32:34.541Z,7.64
2019-03-18T23:33:38.964Z,7.64
2019-03-18T23:34:43.364Z,7.62
2019-03-18T23:38:59.452Z,7.57
2019-03-18T23:40:09.105Z,7.57
2019-03-18T23:41:14.743Z,7.58
2019-03-18T23:43:22.741Z,7.58
2019-03-18T23:49:47.407Z,7.52
2019-03-18T23:52:58.652Z,7.51
2019-03-18T23:54:03.042Z,7.45
2019-03-18T23:56:12.277Z,7.45
2019-03-18T23:57:16.685Z,7.45
